createdAt,value
2022-10-28T07:01:11.107Z,16.00
2022-10-28T07:03:39.129Z,16.10
2022-10-28T07:06:08.132Z,16.10
2022-10-28T07:08:36.240Z,16.30
2022-10-28T07:11:04.350Z,16.30
2022-10-28T07:13:32.374Z,16.40
2022-10-28T07:16:01.726Z,16.50
2022-10-28T07:18:31.554Z,16.60
2022-10-28T07:21:00.097Z,16.70
2022-10-28T07:23:28.657Z,16.70
2022-10-28T07:25:57.386Z,16.80
2022-10-28T07:28:26.776Z,16.70
2022-10-28T07:30:55.180Z,16.80
2022-10-28T07:33:23.189Z,16.80
2022-10-28T07:35:52.507Z,16.90
2022-10-28T07:38:20.514Z,16.90
2022-10-28T07:40:48.496Z,16.90
2022-10-28T07:43:16.534Z,17.10
2022-10-28T07:45:44.540Z,17.00
2022-10-28T07:48:12.557Z,17.00
2022-10-28T07:50:41.617Z,17.10
2022-10-28T07:53:11.036Z,17.10
2022-10-28T07:55:39.069Z,17.10
2022-10-28T07:58:07.061Z,17.20
2022-10-28T08:00:35.132Z,17.20
2022-10-28T08:03:04.047Z,17.20
2022-10-28T08:05:32.049Z,17.30
2022-10-28T08:07:59.989Z,17.30
2022-10-28T08:10:29.409Z,17.40
2022-10-28T08:12:58.019Z,17.50
2022-10-28T08:15:26.279Z,17.60
2022-10-28T08:17:54.724Z,17.70
2022-10-28T08:20:23.280Z,17.80
2022-10-28T08:22:51.493Z,18.00
2022-10-28T08:25:19.742Z,18.10
2022-10-28T08:27:49.069Z,18.10
2022-10-28T08:30:17.105Z,18.30
2022-10-28T08:32:45.203Z,18.40
2022-10-28T08:35:13.229Z,18.60
2022-10-28T08:37:41.194Z,18.70
2022-10-28T08:40:13.090Z,18.80
2022-10-28T08:42:47.820Z,19.00
2022-10-28T08:45:31.402Z,19.10
2022-10-28T08:48:10.695Z,19.20
2022-10-28T08:50:47.491Z,19.40
2022-10-28T08:53:20.624Z,19.60
2022-10-28T08:55:51.162Z,19.60
2022-10-28T08:58:23.088Z,19.70
2022-10-28T09:00:55.315Z,19.70
2022-10-28T09:03:26.479Z,19.90
2022-10-28T09:05:58.564Z,20.10
2022-10-28T09:08:28.842Z,20.20
2022-10-28T09:11:27.918Z,20.30
2022-10-28T09:14:16.792Z,20.30
2022-10-28T09:16:49.436Z,20.20
2022-10-28T09:19:36.976Z,20.30
2022-10-28T09:22:19.823Z,20.40
2022-10-28T09:24:53.791Z,20.40
2022-10-28T09:27:35.704Z,20.40
2022-10-28T09:30:19.784Z,20.50
2022-10-28T09:32:58.441Z,20.60
2022-10-28T09:35:29.536Z,20.80
2022-10-28T09:38:03.866Z,20.90
2022-10-28T09:40:34.774Z,21.00
2022-10-28T09:43:08.314Z,20.90
2022-10-28T09:45:41.360Z,20.80
2022-10-28T09:48:20.266Z,20.70
2022-10-28T09:50:51.967Z,20.60
2022-10-28T09:53:27.477Z,20.60
2022-10-28T09:55:56.047Z,20.50
2022-10-28T09:58:24.429Z,20.50
2022-10-28T10:00:54.638Z,20.40
2022-10-28T10:03:23.997Z,20.40
2022-10-28T10:05:55.213Z,20.40
2022-10-28T10:08:24.283Z,20.30
2022-10-28T10:10:55.991Z,20.30
2022-10-28T10:13:28.514Z,20.30
2022-10-28T10:15:59.762Z,20.40
2022-10-28T10:18:32.863Z,20.40
2022-10-28T10:21:01.499Z,20.50
2022-10-28T10:23:31.716Z,20.60
2022-10-28T10:26:06.760Z,20.70
2022-10-28T10:28:42.878Z,20.80
2022-10-28T10:31:19.820Z,21.00
2022-10-28T10:33:52.986Z,21.40
2022-10-28T10:36:28.259Z,21.60
2022-10-28T10:38:58.322Z,22.00
2022-10-28T10:41:35.681Z,22.30
2022-10-28T10:44:03.879Z,22.60
2022-10-28T10:46:32.076Z,22.80
2022-10-28T10:49:14.979Z,23.00
2022-10-28T10:51:52.928Z,23.30
2022-10-28T10:54:22.012Z,23.30
2022-10-28T10:56:50.508Z,23.10
2022-10-28T10:59:24.584Z,23.10
2022-10-28T11:01:52.975Z,23.20
2022-10-28T11:04:24.190Z,23.40
2022-10-28T11:06:54.957Z,23.50
2022-10-28T11:09:29.986Z,23.50
2022-10-28T11:11:58.388Z,23.50
2022-10-28T11:14:29.414Z,23.50
2022-10-28T11:16:59.134Z,23.30
2022-10-28T11:19:32.786Z,23.30
2022-10-28T11:22:14.324Z,23.30
2022-10-28T11:25:10.798Z,23.50
2022-10-28T11:27:53.858Z,23.90
2022-10-28T11:30:38.585Z,24.20
2022-10-28T11:33:29.579Z,24.50
2022-10-28T11:36:09.676Z,24.60
2022-10-28T11:39:22.428Z,24.70
2022-10-28T11:42:08.297Z,24.60
2022-10-28T11:44:50.344Z,24.60
2022-10-28T11:47:46.551Z,24.60
2022-10-28T11:50:27.412Z,24.60
2022-10-28T11:53:26.580Z,24.60
2022-10-28T11:56:03.372Z,24.70
2022-10-28T11:58:42.248Z,24.60
2022-10-28T12:01:22.195Z,24.60
2022-10-28T12:04:11.905Z,24.70
2022-10-28T12:06:56.138Z,24.60
2022-10-28T12:09:38.776Z,24.60
2022-10-28T12:12:16.456Z,24.70
2022-10-28T12:14:52.624Z,24.90
2022-10-28T12:17:28.868Z,25.30
2022-10-28T12:20:02.447Z,25.70
2022-10-28T12:22:35.025Z,25.90
2022-10-28T12:25:13.882Z,26.40
2022-10-28T12:27:44.579Z,26.40
2022-10-28T12:30:21.975Z,26.30
2022-10-28T12:32:54.092Z,26.30
2022-10-28T12:35:26.053Z,25.80
2022-10-28T12:37:59.313Z,25.30
2022-10-28T12:40:33.243Z,25.10
2022-10-28T12:43:06.707Z,24.80
2022-10-28T12:45:34.829Z,24.50
2022-10-28T12:48:10.120Z,24.50
2022-10-28T12:50:45.563Z,25.00
2022-10-28T12:53:29.000Z,25.20
2022-10-28T12:56:01.405Z,25.30
2022-10-28T12:58:35.176Z,25.30
2022-10-28T13:01:09.504Z,25.20
2022-10-28T13:03:37.654Z,25.50
2022-10-28T13:06:32.234Z,25.80
2022-10-28T13:09:24.678Z,26.20
2022-10-28T13:12:13.076Z,26.10
2022-10-28T13:15:16.119Z,25.60
2022-10-28T13:17:58.095Z,25.30
2022-10-28T13:20:38.822Z,25.40
2022-10-28T13:23:20.177Z,25.60
2022-10-28T13:26:07.677Z,25.80
2022-10-28T13:28:44.868Z,25.70
2022-10-28T13:31:14.717Z,25.30
2022-10-28T13:33:52.555Z,24.90
2022-10-28T13:36:26.325Z,24.50
2022-10-28T13:38:56.634Z,24.20
2022-10-28T13:41:34.572Z,24.10
2022-10-28T13:44:47.631Z,24.30
2022-10-28T13:47:34.018Z,24.50
2022-10-28T13:50:34.027Z,24.60
2022-10-28T13:53:42.127Z,24.50
2022-10-28T13:56:20.743Z,24.10
2022-10-28T13:58:54.392Z,23.80
2022-10-28T14:02:35.612Z,23.70
2022-10-28T14:05:07.349Z,23.50
2022-10-28T14:07:37.416Z,23.40
2022-10-28T14:10:24.308Z,23.20
2022-10-28T14:12:56.807Z,23.20
2022-10-28T14:15:29.830Z,23.10
2022-10-28T14:18:10.590Z,23.00
2022-10-28T14:21:01.687Z,23.00
2022-10-28T14:24:09.225Z,22.90
2022-10-28T14:27:12.660Z,22.90
2022-10-28T14:29:49.032Z,22.90
2022-10-28T14:32:42.697Z,22.90
2022-10-28T14:35:24.725Z,23.10
2022-10-28T14:38:25.467Z,23.20
2022-10-28T14:41:04.903Z,23.20
2022-10-28T14:43:48.685Z,23.20
2022-10-28T14:46:34.456Z,23.20
2022-10-28T14:49:04.960Z,23.00
2022-10-28T14:51:42.409Z,22.80
2022-10-28T14:54:16.079Z,22.70
2022-10-28T14:56:45.243Z,22.60
2022-10-28T14:59:27.136Z,22.60
2022-10-28T15:02:02.559Z,22.50
2022-10-28T15:04:31.032Z,22.50
2022-10-28T15:07:00.816Z,22.50
2022-10-28T15:09:31.077Z,22.40
2022-10-28T15:12:02.274Z,22.40
2022-10-28T15:14:36.822Z,22.40
2022-10-28T15:17:13.289Z,22.30
2022-10-28T15:19:42.047Z,22.30
2022-10-28T15:22:20.184Z,22.30
2022-10-28T15:24:56.445Z,22.30
2022-10-28T15:27:25.781Z,22.30
2022-10-28T15:29:55.835Z,22.20
2022-10-28T15:32:35.090Z,22.30
2022-10-28T15:35:38.112Z,22.20
2022-10-28T15:38:39.180Z,22.10
2022-10-28T15:41:49.204Z,22.10
2022-10-28T15:44:31.619Z,22.00
2022-10-28T15:47:01.212Z,21.90
2022-10-28T15:49:38.061Z,21.80
2022-10-28T15:52:41.916Z,21.70
2022-10-28T15:55:47.671Z,21.70
2022-10-28T15:58:35.635Z,21.70
2022-10-28T16:01:04.984Z,21.60
2022-10-28T16:03:43.921Z,21.60
2022-10-28T16:06:24.704Z,21.50
